sensor_id;sensor_type;location;lat;lon;timestamp;temperature;humidity
34829;DHT22;21042;47.620;12.188;2023-09-18T00:02:07;16.30;99.90
34829;DHT22;21042;47.620;12.188;2023-09-18T00:04:34;16.20;99.90
34829;DHT22;21042;47.620;12.188;2023-09-18T00:07:00;16.10;99.90
34829;DHT22;21042;47.620;12.188;2023-09-18T00:09:28;16.00;99.90
34829;DHT22;21042;47.620;12.188;2023-09-18T00:11:55;16.10;99.90
34829;DHT22;21042;47.620;12.188;2023-09-18T00:14:21;16.20;99.90
34829;DHT22;21042;47.620;12.188;2023-09-18T00:16:48;16.30;99.90
34829;DHT22;21042;47.620;12.188;2023-09-18T00:19:25;16.20;99.90
34829;DHT22;21042;47.620;12.188;2023-09-18T00:21:51;16.20;99.90
34829;DHT22;21042;47.620;12.188;2023-09-18T00:24:19;16.00;99.90
34829;DHT22;21042;47.620;12.188;2023-09-18T00:26:47;16.10;99.90
34829;DHT22;21042;47.620;12.188;2023-09-18T00:29:14;16.10;99.90
34829;DHT22;21042;47.620;12.188;2023-09-18T00:31:41;16.20;99.90
34829;DHT22;21042;47.620;12.188;2023-09-18T00:34:09;16.20;99.90
34829;DHT22;21042;47.620;12.188;2023-09-18T00:36:36;16.20;99.90
34829;DHT22;21042;47.620;12.188;2023-09-18T00:39:03;16.20;99.90
34829;DHT22;21042;47.620;12.188;2023-09-18T00:41:30;16.20;99.90
34829;DHT22;21042;47.620;12.188;2023-09-18T00:43:57;16.20;99.90
34829;DHT22;21042;47.620;12.188;2023-09-18T00:46:25;16.20;99.90
34829;DHT22;21042;47.620;12.188;2023-09-18T00:48:53;16.10;99.90
34829;DHT22;21042;47.620;12.188;2023-09-18T00:51:22;16.10;99.90
34829;DHT22;21042;47.620;12.188;2023-09-18T00:53:49;16.10;99.90
34829;DHT22;21042;47.620;12.188;2023-09-18T00:56:17;16.10;99.90
34829;DHT22;21042;47.620;12.188;2023-09-18T00:58:49;16.10;99.90
34829;DHT22;21042;47.620;12.188;2023-09-18T01:01:18;16.10;99.90
34829;DHT22;21042;47.620;12.188;2023-09-18T01:03:50;16.10;99.90
34829;DHT22;21042;47.620;12.188;2023-09-18T01:06:19;16.10;99.90
34829;DHT22;21042;47.620;12.188;2023-09-18T01:08:48;16.10;99.90
34829;DHT22;21042;47.620;12.188;2023-09-18T01:12:01;16.00;99.90
34829;DHT22;21042;47.620;12.188;2023-09-18T01:14:42;16.00;99.90
34829;DHT22;21042;47.620;12.188;2023-09-18T01:17:10;15.90;99.90
34829;DHT22;21042;47.620;12.188;2023-09-18T01:19:42;15.90;99.90
34829;DHT22;21042;47.620;12.188;2023-09-18T01:22:14;15.90;99.90
34829;DHT22;21042;47.620;12.188;2023-09-18T01:24:42;16.00;99.90
34829;DHT22;21042;47.620;12.188;2023-09-18T01:27:11;16.00;99.90
34829;DHT22;21042;47.620;12.188;2023-09-18T01:29:40;16.00;99.90
34829;DHT22;21042;47.620;12.188;2023-09-18T01:32:06;16.00;99.90
34829;DHT22;21042;47.620;12.188;2023-09-18T01:34:36;16.00;99.90
34829;DHT22;21042;47.620;12.188;2023-09-18T01:37:05;16.10;99.90
34829;DHT22;21042;47.620;12.188;2023-09-18T01:39:33;16.00;99.90
34829;DHT22;21042;47.620;12.188;2023-09-18T01:42:03;16.00;99.90
34829;DHT22;21042;47.620;12.188;2023-09-18T01:44:34;16.00;99.90
34829;DHT22;21042;47.620;12.188;2023-09-18T01:47:06;15.90;99.90
34829;DHT22;21042;47.620;12.188;2023-09-18T01:49:35;16.00;99.90
34829;DHT22;21042;47.620;12.188;2023-09-18T01:52:03;16.00;99.90
34829;DHT22;21042;47.620;12.188;2023-09-18T01:54:31;15.90;99.90
34829;DHT22;21042;47.620;12.188;2023-09-18T01:56:58;15.80;99.90
34829;DHT22;21042;47.620;12.188;2023-09-18T01:59:25;15.70;99.90
34829;DHT22;21042;47.620;12.188;2023-09-18T02:01:53;15.60;99.90
34829;DHT22;21042;47.620;12.188;2023-09-18T02:04:21;15.40;99.90
34829;DHT22;21042;47.620;12.188;2023-09-18T02:07:09;15.40;99.90
34829;DHT22;21042;47.620;12.188;2023-09-18T02:09:36;15.30;99.90
34829;DHT22;21042;47.620;12.188;2023-09-18T02:12:03;15.30;99.90
34829;DHT22;21042;47.620;12.188;2023-09-18T02:14:31;15.30;99.90
34829;DHT22;21042;47.620;12.188;2023-09-18T02:16:58;15.40;99.90
34829;DHT22;21042;47.620;12.188;2023-09-18T02:19:25;15.40;99.90
34829;DHT22;21042;47.620;12.188;2023-09-18T02:21:55;15.40;99.90
34829;DHT22;21042;47.620;12.188;2023-09-18T02:24:22;15.40;99.90
34829;DHT22;21042;47.620;12.188;2023-09-18T02:26:50;15.40;99.90
34829;DHT22;21042;47.620;12.188;2023-09-18T02:29:17;15.40;99.90
34829;DHT22;21042;47.620;12.188;2023-09-18T02:31:44;15.40;99.90
34829;DHT22;21042;47.620;12.188;2023-09-18T02:34:10;15.30;99.90
34829;DHT22;21042;47.620;12.188;2023-09-18T02:36:37;15.30;99.90
34829;DHT22;21042;47.620;12.188;2023-09-18T02:39:04;15.30;99.90
34829;DHT22;21042;47.620;12.188;2023-09-18T02:41:31;15.30;99.90
34829;DHT22;21042;47.620;12.188;2023-09-18T02:43:58;15.40;99.90
34829;DHT22;21042;47.620;12.188;2023-09-18T02:46:25;15.60;99.90
34829;DHT22;21042;47.620;12.188;2023-09-18T02:48:52;15.70;99.90
34829;DHT22;21042;47.620;12.188;2023-09-18T02:51:19;15.70;99.90
34829;DHT22;21042;47.620;12.188;2023-09-18T02:53:46;15.70;99.90
34829;DHT22;21042;47.620;12.188;2023-09-18T02:56:13;15.80;99.90
34829;DHT22;21042;47.620;12.188;2023-09-18T02:58:41;15.70;99.90
34829;DHT22;21042;47.620;12.188;2023-09-18T03:01:07;15.70;99.90
34829;DHT22;21042;47.620;12.188;2023-09-18T03:03:35;15.70;99.90
34829;DHT22;21042;47.620;12.188;2023-09-18T03:06:02;15.60;99.90
34829;DHT22;21042;47.620;12.188;2023-09-18T03:08:30;15.70;99.90
34829;DHT22;21042;47.620;12.188;2023-09-18T03:10:57;15.70;99.90
34829;DHT22;21042;47.620;12.188;2023-09-18T03:13:27;15.80;99.90
34829;DHT22;21042;47.620;12.188;2023-09-18T03:15:54;15.80;99.90
34829;DHT22;21042;47.620;12.188;2023-09-18T03:18:22;15.80;99.90
34829;DHT22;21042;47.620;12.188;2023-09-18T03:20:50;15.80;99.90
34829;DHT22;21042;47.620;12.188;2023-09-18T03:23:16;15.80;99.90
34829;DHT22;21042;47.620;12.188;2023-09-18T03:25:44;15.80;99.90
34829;DHT22;21042;47.620;12.188;2023-09-18T03:28:16;15.80;99.90
34829;DHT22;21042;47.620;12.188;2023-09-18T03:30:43;15.70;99.90
34829;DHT22;21042;47.620;12.188;2023-09-18T03:33:10;15.60;99.90
34829;DHT22;21042;47.620;12.188;2023-09-18T03:35:51;15.40;99.90
34829;DHT22;21042;47.620;12.188;2023-09-18T03:38:23;15.30;99.90
34829;DHT22;21042;47.620;12.188;2023-09-18T03:40:51;15.20;99.90
34829;DHT22;21042;47.620;12.188;2023-09-18T03:43:19;15.30;99.90
34829;DHT22;21042;47.620;12.188;2023-09-18T03:45:46;15.40;99.90
34829;DHT22;21042;47.620;12.188;2023-09-18T03:48:14;15.50;99.90
34829;DHT22;21042;47.620;12.188;2023-09-18T03:50:42;15.40;99.90
34829;DHT22;21042;47.620;12.188;2023-09-18T03:53:09;15.30;99.90
34829;DHT22;21042;47.620;12.188;2023-09-18T03:55:36;15.20;99.90
34829;DHT22;21042;47.620;12.188;2023-09-18T03:58:04;15.10;99.90
34829;DHT22;21042;47.620;12.188;2023-09-18T04:00:31;15.10;99.90
34829;DHT22;21042;47.620;12.188;2023-09-18T04:02:58;15.20;99.90
34829;DHT22;21042;47.620;12.188;2023-09-18T04:05:26;15.30;99.90
34829;DHT22;21042;47.620;12.188;2023-09-18T04:07:56;15.30;99.90
34829;DHT22;21042;47.620;12.188;2023-09-18T04:10:22;15.40;99.90
34829;DHT22;21042;47.620;12.188;2023-09-18T04:12:51;15.40;99.90
34829;DHT22;21042;47.620;12.188;2023-09-18T04:15:19;15.50;99.90
34829;DHT22;21042;47.620;12.188;2023-09-18T04:17:46;15.50;99.90
34829;DHT22;21042;47.620;12.188;2023-09-18T04:20:14;15.40;99.90
34829;DHT22;21042;47.620;12.188;2023-09-18T04:22:46;15.40;99.90
34829;DHT22;21042;47.620;12.188;2023-09-18T04:25:17;15.40;99.90
34829;DHT22;21042;47.620;12.188;2023-09-18T04:27:47;15.30;99.90
34829;DHT22;21042;47.620;12.188;2023-09-18T04:30:17;15.20;99.90
34829;DHT22;21042;47.620;12.188;2023-09-18T04:32:46;15.10;99.90
34829;DHT22;21042;47.620;12.188;2023-09-18T04:35:13;15.00;99.90
34829;DHT22;21042;47.620;12.188;2023-09-18T04:37:40;14.90;99.90
34829;DHT22;21042;47.620;12.188;2023-09-18T04:40:08;14.80;99.90
34829;DHT22;21042;47.620;12.188;2023-09-18T04:42:40;14.70;99.90
34829;DHT22;21042;47.620;12.188;2023-09-18T04:45:08;14.60;99.90
34829;DHT22;21042;47.620;12.188;2023-09-18T04:47:36;14.50;99.90
34829;DHT22;21042;47.620;12.188;2023-09-18T04:50:03;14.40;99.90
34829;DHT22;21042;47.620;12.188;2023-09-18T04:52:37;14.40;99.90
34829;DHT22;21042;47.620;12.188;2023-09-18T04:55:04;14.40;99.90
34829;DHT22;21042;47.620;12.188;2023-09-18T04:57:32;14.70;99.90
34829;DHT22;21042;47.620;12.188;2023-09-18T05:00:01;14.80;99.90
34829;DHT22;21042;47.620;12.188;2023-09-18T05:02:43;15.00;99.90
34829;DHT22;21042;47.620;12.188;2023-09-18T05:05:11;15.10;99.90
34829;DHT22;21042;47.620;12.188;2023-09-18T05:07:38;15.10;99.90
34829;DHT22;21042;47.620;12.188;2023-09-18T05:10:05;14.90;99.90
34829;DHT22;21042;47.620;12.188;2023-09-18T05:12:32;14.90;99.90
34829;DHT22;21042;47.620;12.188;2023-09-18T05:14:59;14.90;99.90
34829;DHT22;21042;47.620;12.188;2023-09-18T05:17:47;14.80;99.90
34829;DHT22;21042;47.620;12.188;2023-09-18T05:20:18;14.80;99.90
34829;DHT22;21042;47.620;12.188;2023-09-18T05:22:45;14.70;99.90
34829;DHT22;21042;47.620;12.188;2023-09-18T05:25:12;14.60;99.90
34829;DHT22;21042;47.620;12.188;2023-09-18T05:27:42;14.80;99.90
34829;DHT22;21042;47.620;12.188;2023-09-18T05:30:13;14.90;99.90
34829;DHT22;21042;47.620;12.188;2023-09-18T05:32:42;15.00;99.90
34829;DHT22;21042;47.620;12.188;2023-09-18T05:35:10;15.10;99.90
34829;DHT22;21042;47.620;12.188;2023-09-18T05:37:39;15.20;99.90
34829;DHT22;21042;47.620;12.188;2023-09-18T05:40:07;15.20;99.90
34829;DHT22;21042;47.620;12.188;2023-09-18T05:42:37;15.20;99.90
34829;DHT22;21042;47.620;12.188;2023-09-18T05:45:04;15.20;99.90
34829;DHT22;21042;47.620;12.188;2023-09-18T05:47:33;15.30;99.90
34829;DHT22;21042;47.620;12.188;2023-09-18T05:50:00;15.40;99.90
34829;DHT22;21042;47.620;12.188;2023-09-18T05:52:27;15.40;99.90
34829;DHT22;21042;47.620;12.188;2023-09-18T05:54:54;15.50;99.90
34829;DHT22;21042;47.620;12.188;2023-09-18T05:57:20;15.50;99.90
34829;DHT22;21042;47.620;12.188;2023-09-18T05:59:47;15.50;99.90
34829;DHT22;21042;47.620;12.188;2023-09-18T06:02:14;15.50;99.90
34829;DHT22;21042;47.620;12.188;2023-09-18T06:04:44;15.60;99.90
34829;DHT22;21042;47.620;12.188;2023-09-18T06:07:11;15.70;99.90
34829;DHT22;21042;47.620;12.188;2023-09-18T06:09:39;15.70;99.90
34829;DHT22;21042;47.620;12.188;2023-09-18T06:12:07;15.80;99.90
34829;DHT22;21042;47.620;12.188;2023-09-18T06:14:34;15.90;99.90
34829;DHT22;21042;47.620;12.188;2023-09-18T06:17:01;16.00;99.90
34829;DHT22;21042;47.620;12.188;2023-09-18T06:19:28;16.00;99.90
34829;DHT22;21042;47.620;12.188;2023-09-18T06:21:55;16.10;99.90
34829;DHT22;21042;47.620;12.188;2023-09-18T06:24:22;16.20;99.90
34829;DHT22;21042;47.620;12.188;2023-09-18T06:26:49;16.20;99.90
34829;DHT22;21042;47.620;12.188;2023-09-18T06:29:17;16.40;99.90
34829;DHT22;21042;47.620;12.188;2023-09-18T06:31:44;16.40;99.90
34829;DHT22;21042;47.620;12.188;2023-09-18T06:34:11;16.50;99.90
34829;DHT22;21042;47.620;12.188;2023-09-18T06:36:37;16.60;99.90
34829;DHT22;21042;47.620;12.188;2023-09-18T06:39:04;16.70;99.90
34829;DHT22;21042;47.620;12.188;2023-09-18T06:41:32;16.80;99.90
34829;DHT22;21042;47.620;12.188;2023-09-18T06:43:59;16.80;99.90
34829;DHT22;21042;47.620;12.188;2023-09-18T06:46:29;16.80;99.90
34829;DHT22;21042;47.620;12.188;2023-09-18T06:48:56;16.80;99.90
34829;DHT22;21042;47.620;12.188;2023-09-18T06:51:23;16.80;99.90
34829;DHT22;21042;47.620;12.188;2023-09-18T06:54:08;16.80;99.90
34829;DHT22;21042;47.620;12.188;2023-09-18T06:56:35;16.80;99.90
34829;DHT22;21042;47.620;12.188;2023-09-18T06:59:02;16.90;99.90
34829;DHT22;21042;47.620;12.188;2023-09-18T07:01:29;16.90;99.90
34829;DHT22;21042;47.620;12.188;2023-09-18T07:03:58;16.90;99.90
34829;DHT22;21042;47.620;12.188;2023-09-18T07:06:26;16.90;99.90
34829;DHT22;21042;47.620;12.188;2023-09-18T07:08:53;17.00;99.90
34829;DHT22;21042;47.620;12.188;2023-09-18T07:11:21;17.20;99.90
34829;DHT22;21042;47.620;12.188;2023-09-18T07:13:51;17.40;99.90
34829;DHT22;21042;47.620;12.188;2023-09-18T07:16:17;17.60;99.90
34829;DHT22;21042;47.620;12.188;2023-09-18T07:18:45;17.80;99.90
34829;DHT22;21042;47.620;12.188;2023-09-18T07:21:11;17.90;99.90
34829;DHT22;21042;47.620;12.188;2023-09-18T07:23:40;18.00;99.90
34829;DHT22;21042;47.620;12.188;2023-09-18T07:26:07;18.10;99.90
34829;DHT22;21042;47.620;12.188;2023-09-18T07:28:34;18.30;99.90
34829;DHT22;21042;47.620;12.188;2023-09-18T07:31:05;18.40;99.90
34829;DHT22;21042;47.620;12.188;2023-09-18T07:33:32;18.60;99.90
34829;DHT22;21042;47.620;12.188;2023-09-18T07:35:59;18.60;99.90
34829;DHT22;21042;47.620;12.188;2023-09-18T07:38:26;18.70;99.90
34829;DHT22;21042;47.620;12.188;2023-09-18T07:40:53;18.80;99.90
34829;DHT22;21042;47.620;12.188;2023-09-18T07:43:24;18.90;99.90
34829;DHT22;21042;47.620;12.188;2023-09-18T07:45:53;18.80;99.90
34829;DHT22;21042;47.620;12.188;2023-09-18T07:48:22;18.90;99.90
34829;DHT22;21042;47.620;12.188;2023-09-18T07:50:49;18.90;99.90
34829;DHT22;21042;47.620;12.188;2023-09-18T07:53:18;19.10;99.90
34829;DHT22;21042;47.620;12.188;2023-09-18T07:55:47;19.20;99.90
34829;DHT22;21042;47.620;12.188;2023-09-18T07:58:13;19.30;99.90
34829;DHT22;21042;47.620;12.188;2023-09-18T08:00:40;19.50;99.90
34829;DHT22;21042;47.620;12.188;2023-09-18T08:03:07;19.50;99.90
34829;DHT22;21042;47.620;12.188;2023-09-18T08:05:34;19.70;99.90
34829;DHT22;21042;47.620;12.188;2023-09-18T08:08:01;19.90;99.90
34829;DHT22;21042;47.620;12.188;2023-09-18T08:10:31;20.00;99.90
34829;DHT22;21042;47.620;12.188;2023-09-18T08:12:58;20.20;99.90
34829;DHT22;21042;47.620;12.188;2023-09-18T08:15:25;20.30;99.90
34829;DHT22;21042;47.620;12.188;2023-09-18T08:17:52;20.50;99.90
34829;DHT22;21042;47.620;12.188;2023-09-18T08:20:20;20.60;99.90
34829;DHT22;21042;47.620;12.188;2023-09-18T08:22:47;20.60;99.90
34829;DHT22;21042;47.620;12.188;2023-09-18T08:25:14;20.70;99.90
34829;DHT22;21042;47.620;12.188;2023-09-18T08:27:42;20.70;99.90
34829;DHT22;21042;47.620;12.188;2023-09-18T08:30:12;20.70;99.90
34829;DHT22;21042;47.620;12.188;2023-09-18T08:32:41;20.70;99.90
34829;DHT22;21042;47.620;12.188;2023-09-18T08:35:09;20.90;99.90
34829;DHT22;21042;47.620;12.188;2023-09-18T08:37:36;21.10;99.90
34829;DHT22;21042;47.620;12.188;2023-09-18T08:40:03;21.20;99.90
34829;DHT22;21042;47.620;12.188;2023-09-18T08:42:39;21.30;99.90
34829;DHT22;21042;47.620;12.188;2023-09-18T08:45:09;21.40;99.90
34829;DHT22;21042;47.620;12.188;2023-09-18T08:47:40;21.50;99.90
34829;DHT22;21042;47.620;12.188;2023-09-18T08:50:11;21.70;99.90
34829;DHT22;21042;47.620;12.188;2023-09-18T08:52:40;22.00;99.90
34829;DHT22;21042;47.620;12.188;2023-09-18T08:55:07;22.30;99.90
34829;DHT22;21042;47.620;12.188;2023-09-18T08:57:36;22.60;99.90
34829;DHT22;21042;47.620;12.188;2023-09-18T09:00:05;22.70;99.90
34829;DHT22;21042;47.620;12.188;2023-09-18T09:02:34;23.00;99.90
34829;DHT22;21042;47.620;12.188;2023-09-18T09:05:02;23.10;99.90
34829;DHT22;21042;47.620;12.188;2023-09-18T09:07:29;23.20;99.90
34829;DHT22;21042;47.620;12.188;2023-09-18T09:09:58;23.30;99.90
34829;DHT22;21042;47.620;12.188;2023-09-18T09:12:51;23.20;99.90
34829;DHT22;21042;47.620;12.188;2023-09-18T09:15:27;23.20;99.90
34829;DHT22;21042;47.620;12.188;2023-09-18T09:18:06;23.30;99.90
34829;DHT22;21042;47.620;12.188;2023-09-18T09:20:34;23.40;99.90
34829;DHT22;21042;47.620;12.188;2023-09-18T09:23:04;23.60;99.90
34829;DHT22;21042;47.620;12.188;2023-09-18T09:25:32;23.90;99.90
34829;DHT22;21042;47.620;12.188;2023-09-18T09:28:01;23.90;99.90
34829;DHT22;21042;47.620;12.188;2023-09-18T09:30:31;23.80;99.90
34829;DHT22;21042;47.620;12.188;2023-09-18T09:32:59;23.80;99.90
34829;DHT22;21042;47.620;12.188;2023-09-18T09:35:28;23.60;99.90
34829;DHT22;21042;47.620;12.188;2023-09-18T09:38:01;23.60;99.90
34829;DHT22;21042;47.620;12.188;2023-09-18T09:40:30;23.60;99.90
34829;DHT22;21042;47.620;12.188;2023-09-18T09:42:58;23.50;99.90
34829;DHT22;21042;47.620;12.188;2023-09-18T09:45:29;23.60;99.90
34829;DHT22;21042;47.620;12.188;2023-09-18T09:47:57;23.70;99.90
34829;DHT22;21042;47.620;12.188;2023-09-18T09:50:24;23.60;99.90
34829;DHT22;21042;47.620;12.188;2023-09-18T09:52:54;23.50;99.90
34829;DHT22;21042;47.620;12.188;2023-09-18T09:55:26;23.50;99.90
34829;DHT22;21042;47.620;12.188;2023-09-18T10:00:48;23.40;99.90
34829;DHT22;21042;47.620;12.188;2023-09-18T10:03:18;23.40;99.90
34829;DHT22;21042;47.620;12.188;2023-09-18T10:05:47;23.40;99.90
34829;DHT22;21042;47.620;12.188;2023-09-18T10:08:25;23.50;99.90
34829;DHT22;21042;47.620;12.188;2023-09-18T10:10:54;23.70;99.90
34829;DHT22;21042;47.620;12.188;2023-09-18T10:13:55;24.00;99.90
34829;DHT22;21042;47.620;12.188;2023-09-18T10:16:23;24.60;99.90
34829;DHT22;21042;47.620;12.188;2023-09-18T10:19:14;25.10;99.90
34829;DHT22;21042;47.620;12.188;2023-09-18T10:22:00;25.30;99.90
34829;DHT22;21042;47.620;12.188;2023-09-18T10:24:34;25.40;99.90
34829;DHT22;21042;47.620;12.188;2023-09-18T10:27:04;25.40;99.90
34829;DHT22;21042;47.620;12.188;2023-09-18T10:29:34;25.20;99.90
34829;DHT22;21042;47.620;12.188;2023-09-18T10:32:06;25.00;99.90
34829;DHT22;21042;47.620;12.188;2023-09-18T10:34:36;24.70;99.90
34829;DHT22;21042;47.620;12.188;2023-09-18T10:37:04;24.40;99.90
34829;DHT22;21042;47.620;12.188;2023-09-18T10:39:36;24.00;99.90
34829;DHT22;21042;47.620;12.188;2023-09-18T10:42:04;23.70;99.90
34829;DHT22;21042;47.620;12.188;2023-09-18T10:44:34;23.40;99.90
34829;DHT22;21042;47.620;12.188;2023-09-18T10:47:05;23.20;99.90
34829;DHT22;21042;47.620;12.188;2023-09-18T10:49:34;23.10;99.90
34829;DHT22;21042;47.620;12.188;2023-09-18T10:52:02;23.00;99.90
34829;DHT22;21042;47.620;12.188;2023-09-18T10:54:31;23.10;99.90
34829;DHT22;21042;47.620;12.188;2023-09-18T10:56:58;23.10;99.90
34829;DHT22;21042;47.620;12.188;2023-09-18T10:59:27;23.10;99.90
34829;DHT22;21042;47.620;12.188;2023-09-18T11:01:55;23.00;99.90
34829;DHT22;21042;47.620;12.188;2023-09-18T11:04:23;23.00;99.90
34829;DHT22;21042;47.620;12.188;2023-09-18T11:09:21;22.90;99.90
34829;DHT22;21042;47.620;12.188;2023-09-18T11:14:56;22.70;99.90
34829;DHT22;21042;47.620;12.188;2023-09-18T11:22:46;22.60;99.90
34829;DHT22;21042;47.620;12.188;2023-09-18T11:25:39;22.70;99.90
34829;DHT22;21042;47.620;12.188;2023-09-18T11:28:28;22.80;99.90
34829;DHT22;21042;47.620;12.188;2023-09-18T11:30:59;22.90;99.90
34829;DHT22;21042;47.620;12.188;2023-09-18T11:33:34;23.00;99.90
34829;DHT22;21042;47.620;12.188;2023-09-18T11:38:35;23.20;99.90
34829;DHT22;21042;47.620;12.188;2023-09-18T11:41:25;23.20;99.90
34829;DHT22;21042;47.620;12.188;2023-09-18T11:44:02;23.20;99.90
34829;DHT22;21042;47.620;12.188;2023-09-18T11:46:47;23.20;99.90
34829;DHT22;21042;47.620;12.188;2023-09-18T11:49:20;23.30;99.90
34829;DHT22;21042;47.620;12.188;2023-09-18T11:51:54;23.30;99.90
34829;DHT22;21042;47.620;12.188;2023-09-18T11:54:21;23.30;99.90
34829;DHT22;21042;47.620;12.188;2023-09-18T11:56:48;23.30;99.90
34829;DHT22;21042;47.620;12.188;2023-09-18T11:59:15;23.30;99.90
34829;DHT22;21042;47.620;12.188;2023-09-18T12:01:42;23.20;99.90
34829;DHT22;21042;47.620;12.188;2023-09-18T12:04:13;23.10;99.90
34829;DHT22;21042;47.620;12.188;2023-09-18T12:06:40;23.10;99.90
34829;DHT22;21042;47.620;12.188;2023-09-18T12:09:08;22.90;99.90
34829;DHT22;21042;47.620;12.188;2023-09-18T12:11:36;22.80;99.90
34829;DHT22;21042;47.620;12.188;2023-09-18T12:14:04;22.70;99.90
34829;DHT22;21042;47.620;12.188;2023-09-18T12:16:38;22.50;99.90
34829;DHT22;21042;47.620;12.188;2023-09-18T12:19:07;22.30;99.90
34829;DHT22;21042;47.620;12.188;2023-09-18T12:21:41;22.10;99.90
34829;DHT22;21042;47.620;12.188;2023-09-18T12:24:13;22.00;99.90
34829;DHT22;21042;47.620;12.188;2023-09-18T12:26:40;21.90;99.90
34829;DHT22;21042;47.620;12.188;2023-09-18T12:29:08;21.80;99.90
34829;DHT22;21042;47.620;12.188;2023-09-18T12:31:35;21.80;99.90
34829;DHT22;21042;47.620;12.188;2023-09-18T12:34:02;21.80;99.90
34829;DHT22;21042;47.620;12.188;2023-09-18T12:36:29;21.80;99.90
34829;DHT22;21042;47.620;12.188;2023-09-18T12:38:57;21.80;99.90
34829;DHT22;21042;47.620;12.188;2023-09-18T12:41:25;21.80;99.90
34829;DHT22;21042;47.620;12.188;2023-09-18T12:43:58;21.80;99.90
34829;DHT22;21042;47.620;12.188;2023-09-18T12:46:26;21.70;99.90
34829;DHT22;21042;47.620;12.188;2023-09-18T12:48:53;21.60;99.90
34829;DHT22;21042;47.620;12.188;2023-09-18T12:51:31;21.50;99.90
34829;DHT22;21042;47.620;12.188;2023-09-18T12:54:01;21.40;99.90
34829;DHT22;21042;47.620;12.188;2023-09-18T12:56:40;21.30;99.90
34829;DHT22;21042;47.620;12.188;2023-09-18T12:59:07;21.20;99.90
34829;DHT22;21042;47.620;12.188;2023-09-18T13:01:46;21.10;99.90
34829;DHT22;21042;47.620;12.188;2023-09-18T13:04:14;21.00;99.90
34829;DHT22;21042;47.620;12.188;2023-09-18T13:06:41;20.90;99.90
34829;DHT22;21042;47.620;12.188;2023-09-18T13:09:18;20.70;99.90
34829;DHT22;21042;47.620;12.188;2023-09-18T13:11:56;20.50;99.90
34829;DHT22;21042;47.620;12.188;2023-09-18T13:14:27;20.50;99.90
34829;DHT22;21042;47.620;12.188;2023-09-18T13:17:00;20.40;99.90
34829;DHT22;21042;47.620;12.188;2023-09-18T13:19:31;20.30;99.90
34829;DHT22;21042;47.620;12.188;2023-09-18T13:21:58;20.20;99.90
34829;DHT22;21042;47.620;12.188;2023-09-18T13:24:28;20.20;99.90
34829;DHT22;21042;47.620;12.188;2023-09-18T13:26:56;20.10;99.90
34829;DHT22;21042;47.620;12.188;2023-09-18T13:29:25;20.00;99.90
34829;DHT22;21042;47.620;12.188;2023-09-18T13:31:52;19.90;99.90
34829;DHT22;21042;47.620;12.188;2023-09-18T13:34:19;19.80;99.90
34829;DHT22;21042;47.620;12.188;2023-09-18T13:36:46;19.50;99.90
34829;DHT22;21042;47.620;12.188;2023-09-18T13:39:13;19.30;99.90
34829;DHT22;21042;47.620;12.188;2023-09-18T13:41:40;18.80;99.90
34829;DHT22;21042;47.620;12.188;2023-09-18T13:44:10;18.40;99.90
34829;DHT22;21042;47.620;12.188;2023-09-18T13:46:37;18.10;99.90
34829;DHT22;21042;47.620;12.188;2023-09-18T13:49:04;17.80;99.90
34829;DHT22;21042;47.620;12.188;2023-09-18T13:51:32;17.50;99.90
34829;DHT22;21042;47.620;12.188;2023-09-18T13:53:59;17.30;99.90
34829;DHT22;21042;47.620;12.188;2023-09-18T13:56:26;17.20;99.90
34829;DHT22;21042;47.620;12.188;2023-09-18T13:58:57;17.20;99.90
34829;DHT22;21042;47.620;12.188;2023-09-18T14:01:24;17.00;99.90
34829;DHT22;21042;47.620;12.188;2023-09-18T14:03:52;17.10;99.90
34829;DHT22;21042;47.620;12.188;2023-09-18T14:06:20;17.00;99.90
34829;DHT22;21042;47.620;12.188;2023-09-18T14:08:47;17.00;99.90
34829;DHT22;21042;47.620;12.188;2023-09-18T14:11:14;16.90;99.90
34829;DHT22;21042;47.620;12.188;2023-09-18T14:13:41;16.90;99.90
34829;DHT22;21042;47.620;12.188;2023-09-18T14:16:09;16.90;99.90
34829;DHT22;21042;47.620;12.188;2023-09-18T14:18:37;17.00;99.90
34829;DHT22;21042;47.620;12.188;2023-09-18T14:21:05;17.00;99.90
34829;DHT22;21042;47.620;12.188;2023-09-18T14:23:32;17.00;99.90
34829;DHT22;21042;47.620;12.188;2023-09-18T14:26:01;17.10;99.90
34829;DHT22;21042;47.620;12.188;2023-09-18T14:28:28;17.10;99.90
34829;DHT22;21042;47.620;12.188;2023-09-18T14:30:55;17.00;99.90
34829;DHT22;21042;47.620;12.188;2023-09-18T14:33:21;17.00;99.90
34829;DHT22;21042;47.620;12.188;2023-09-18T14:35:49;17.00;99.90
34829;DHT22;21042;47.620;12.188;2023-09-18T14:38:16;17.00;99.90
34829;DHT22;21042;47.620;12.188;2023-09-18T14:40:43;17.00;99.90
34829;DHT22;21042;47.620;12.188;2023-09-18T14:43:10;17.00;99.90
34829;DHT22;21042;47.620;12.188;2023-09-18T14:45:38;17.00;99.90
34829;DHT22;21042;47.620;12.188;2023-09-18T14:48:06;17.00;99.90
34829;DHT22;21042;47.620;12.188;2023-09-18T14:50:33;17.00;99.90
34829;DHT22;21042;47.620;12.188;2023-09-18T14:53:00;17.00;99.90
34829;DHT22;21042;47.620;12.188;2023-09-18T14:55:27;17.00;99.90
34829;DHT22;21042;47.620;12.188;2023-09-18T14:57:54;16.90;99.90
34829;DHT22;21042;47.620;12.188;2023-09-18T15:00:21;17.00;99.90
34829;DHT22;21042;47.620;12.188;2023-09-18T15:02:48;17.00;99.90
34829;DHT22;21042;47.620;12.188;2023-09-18T15:05:15;16.90;99.90
34829;DHT22;21042;47.620;12.188;2023-09-18T15:07:44;16.90;99.90
34829;DHT22;21042;47.620;12.188;2023-09-18T15:10:11;16.90;99.90
34829;DHT22;21042;47.620;12.188;2023-09-18T15:12:37;16.90;99.90
34829;DHT22;21042;47.620;12.188;2023-09-18T15:15:05;16.90;99.90
34829;DHT22;21042;47.620;12.188;2023-09-18T15:17:31;16.90;99.90
34829;DHT22;21042;47.620;12.188;2023-09-18T15:19:59;16.90;99.90
34829;DHT22;21042;47.620;12.188;2023-09-18T15:22:26;16.80;99.90
34829;DHT22;21042;47.620;12.188;2023-09-18T15:24:53;16.80;99.90
34829;DHT22;21042;47.620;12.188;2023-09-18T15:27:24;16.70;99.90
34829;DHT22;21042;47.620;12.188;2023-09-18T15:29:50;16.80;99.90
34829;DHT22;21042;47.620;12.188;2023-09-18T15:32:17;16.80;99.90
34829;DHT22;21042;47.620;12.188;2023-09-18T15:34:46;16.90;99.90
34829;DHT22;21042;47.620;12.188;2023-09-18T15:37:14;16.90;99.90
34829;DHT22;21042;47.620;12.188;2023-09-18T15:39:44;16.80;99.90
34829;DHT22;21042;47.620;12.188;2023-09-18T15:42:10;16.80;99.90
34829;DHT22;21042;47.620;12.188;2023-09-18T15:44:37;16.90;99.90